createdAt,value
2023-01-03T00:02:23.836Z,11.13
2023-01-03T00:04:50.796Z,10.13
2023-01-03T00:07:33.661Z,14.47
2023-01-03T00:10:03.505Z,12.50
2023-01-03T00:12:32.098Z,12.63
2023-01-03T00:14:59.953Z,13.57
2023-01-03T00:17:27.855Z,11.90
2023-01-03T00:19:55.310Z,11.10
2023-01-03T00:22:22.055Z,11.40
2023-01-03T00:24:49.598Z,10.93
2023-01-03T00:27:16.713Z,14.17
2023-01-03T00:29:43.628Z,14.47
2023-01-03T00:32:10.725Z,15.00
2023-01-03T00:34:37.549Z,14.40
2023-01-03T00:37:04.491Z,15.00
2023-01-03T00:39:31.545Z,15.27
2023-01-03T00:41:58.287Z,14.40
2023-01-03T00:44:25.158Z,12.93
2023-01-03T00:46:51.962Z,13.67
2023-01-03T00:49:18.820Z,14.33
2023-01-03T00:51:45.756Z,12.03
2023-01-03T00:54:14.048Z,13.40
2023-01-03T00:56:43.621Z,13.40
2023-01-03T00:59:12.187Z,13.53
2023-01-03T01:01:46.770Z,12.80
2023-01-03T01:04:16.291Z,12.13
2023-01-03T01:06:52.443Z,11.93
2023-01-03T01:09:22.504Z,11.53
2023-01-03T01:11:50.232Z,12.27
2023-01-03T01:14:22.441Z,11.57
2023-01-03T01:16:58.126Z,11.60
2023-01-03T01:19:37.025Z,12.70
2023-01-03T01:22:04.223Z,12.67
2023-01-03T01:24:31.451Z,12.50
2023-01-03T01:26:58.233Z,13.80
2023-01-03T01:29:25.310Z,13.80
2023-01-03T01:31:52.301Z,13.87
2023-01-03T01:34:19.222Z,13.20
2023-01-03T01:36:47.071Z,14.27
2023-01-03T01:39:25.846Z,15.27
2023-01-03T01:42:30.276Z,13.53
2023-01-03T01:45:05.450Z,14.87
2023-01-03T01:48:01.504Z,13.67
2023-01-03T01:50:45.618Z,14.03
2023-01-03T01:53:18.201Z,17.27
2023-01-03T01:55:53.196Z,13.27
2023-01-03T01:58:22.496Z,12.67
2023-01-03T02:00:49.333Z,13.77
2023-01-03T02:03:16.180Z,13.80
2023-01-03T02:05:48.152Z,14.00
2023-01-03T02:08:15.351Z,13.60
2023-01-03T02:11:16.797Z,13.80
2023-01-03T02:13:49.370Z,13.80
2023-01-03T02:16:34.621Z,14.53
2023-01-03T02:19:28.968Z,15.43
2023-01-03T02:22:17.524Z,15.43
2023-01-03T02:25:03.073Z,13.97
2023-01-03T02:27:48.396Z,13.50
2023-01-03T02:30:39.223Z,13.83
2023-01-03T02:33:34.676Z,14.17
2023-01-03T02:36:22.921Z,14.67
2023-01-03T02:39:13.128Z,14.30
2023-01-03T02:41:47.121Z,14.60
2023-01-03T02:44:25.006Z,16.37
2023-01-03T02:47:02.445Z,16.67
2023-01-03T02:49:29.305Z,19.33
2023-01-03T02:52:03.221Z,18.30
2023-01-03T02:54:46.107Z,17.73
2023-01-03T02:57:20.278Z,19.77
2023-01-03T02:59:58.472Z,16.53
2023-01-03T03:02:32.572Z,17.37
2023-01-03T03:05:02.400Z,16.07
2023-01-03T03:07:34.962Z,16.63
2023-01-03T03:10:20.732Z,18.87
2023-01-03T03:13:12.155Z,17.70
2023-01-03T03:15:51.142Z,21.03
2023-01-03T03:18:27.104Z,18.03
2023-01-03T03:21:17.453Z,18.43
2023-01-03T03:24:05.599Z,24.23
2023-01-03T03:26:39.054Z,18.80
2023-01-03T03:29:15.754Z,21.37
2023-01-03T03:31:47.612Z,18.57
2023-01-03T03:34:26.498Z,23.77
2023-01-03T03:36:59.997Z,19.30
2023-01-03T03:39:47.109Z,22.30
2023-01-03T03:42:58.222Z,20.77
2023-01-03T03:45:41.880Z,23.07
2023-01-03T03:48:27.599Z,20.73
2023-01-03T03:51:02.808Z,22.53
2023-01-03T03:53:34.761Z,20.87
2023-01-03T03:56:12.729Z,21.43
2023-01-03T03:58:41.737Z,20.97
2023-01-03T04:01:11.440Z,21.73
2023-01-03T04:03:40.893Z,20.20
2023-01-03T04:06:25.860Z,20.53
2023-01-03T04:08:52.652Z,19.90
2023-01-03T04:11:19.400Z,20.10
2023-01-03T04:13:46.230Z,24.73
2023-01-03T04:16:13.023Z,20.27
2023-01-03T04:18:39.805Z,20.10
2023-01-03T04:21:06.677Z,20.07
2023-01-03T04:23:33.401Z,21.90
2023-01-03T04:26:00.141Z,18.47
2023-01-03T04:28:26.848Z,17.50
2023-01-03T04:30:53.590Z,19.23
2023-01-03T04:33:20.328Z,20.23
2023-01-03T04:35:47.033Z,20.87
2023-01-03T04:38:13.797Z,20.17
2023-01-03T04:40:40.547Z,21.17
2023-01-03T04:43:25.796Z,23.33
2023-01-03T04:45:52.533Z,22.17
2023-01-03T04:48:19.268Z,22.40
2023-01-03T04:50:53.429Z,21.93
2023-01-03T04:53:21.060Z,19.57
2023-01-03T04:55:48.820Z,20.37
2023-01-03T04:58:15.758Z,22.53
2023-01-03T05:00:42.675Z,20.80
2023-01-03T05:03:10.844Z,21.57
2023-01-03T05:05:39.077Z,20.67
2023-01-03T05:08:12.900Z,24.37
2023-01-03T05:10:40.762Z,23.40
2023-01-03T05:13:08.139Z,25.07
2023-01-03T05:15:37.454Z,26.13
2023-01-03T05:18:04.938Z,24.77
2023-01-03T05:20:50.105Z,26.57
2023-01-03T05:23:36.540Z,24.40
2023-01-03T05:26:12.792Z,25.77
2023-01-03T05:28:40.700Z,22.97
2023-01-03T05:31:07.537Z,24.37
2023-01-03T05:33:34.284Z,24.20
2023-01-03T05:36:01.045Z,24.80
2023-01-03T05:38:27.817Z,25.70
2023-01-03T05:40:54.630Z,24.03
2023-01-03T05:43:21.435Z,24.77
2023-01-03T05:45:52.814Z,25.13
2023-01-03T05:48:21.301Z,25.97
2023-01-03T05:50:49.838Z,24.67
2023-01-03T05:53:16.829Z,24.07
2023-01-03T05:55:43.597Z,23.70
2023-01-03T05:58:12.369Z,25.03
2023-01-03T06:00:39.387Z,24.93
2023-01-03T06:03:06.677Z,23.10
2023-01-03T06:05:33.543Z,23.27
2023-01-03T06:08:02.355Z,24.23
2023-01-03T06:10:29.492Z,22.33
2023-01-03T06:12:57.157Z,21.20
2023-01-03T06:15:24.132Z,21.50
2023-01-03T06:18:02.449Z,22.53
2023-01-03T06:20:30.434Z,21.43
2023-01-03T06:22:57.928Z,21.83
2023-01-03T06:25:25.148Z,22.40
2023-01-03T06:27:52.013Z,21.20
2023-01-03T06:30:18.881Z,21.40
2023-01-03T06:32:45.675Z,22.00
2023-01-03T06:35:12.737Z,22.03
2023-01-03T06:37:39.774Z,22.90
2023-01-03T06:40:07.247Z,22.07
2023-01-03T06:42:43.010Z,21.53
2023-01-03T06:45:30.928Z,21.93
2023-01-03T06:48:16.928Z,21.80
2023-01-03T06:51:03.225Z,20.97
2023-01-03T06:53:49.248Z,20.00
2023-01-03T06:56:16.082Z,21.37
2023-01-03T06:58:42.836Z,20.17
2023-01-03T07:01:09.838Z,20.67
2023-01-03T07:03:37.305Z,19.07
2023-01-03T07:06:04.391Z,18.70
2023-01-03T07:08:31.274Z,19.00
2023-01-03T07:10:58.020Z,19.17
2023-01-03T07:13:43.256Z,17.60
2023-01-03T07:16:18.012Z,18.87
2023-01-03T07:18:50.827Z,17.33
2023-01-03T07:21:22.786Z,17.23
2023-01-03T07:23:49.911Z,17.87
2023-01-03T07:26:16.827Z,16.30
2023-01-03T07:28:43.712Z,16.50
2023-01-03T07:31:10.507Z,17.37
2023-01-03T07:33:39.199Z,16.97
2023-01-03T07:36:12.041Z,16.30
2023-01-03T07:38:40.929Z,17.23
2023-01-03T07:41:08.214Z,15.77
2023-01-03T07:43:38.845Z,15.97
2023-01-03T07:46:23.748Z,16.27
2023-01-03T07:48:52.432Z,16.23
2023-01-03T07:51:21.686Z,15.97
2023-01-03T07:53:52.895Z,14.63
2023-01-03T07:56:21.333Z,15.23
2023-01-03T07:58:49.186Z,15.93
2023-01-03T08:01:20.730Z,15.60
2023-01-03T08:03:47.778Z,16.70
2023-01-03T08:06:17.729Z,15.47
2023-01-03T08:08:44.878Z,15.07
2023-01-03T08:11:32.171Z,14.70
2023-01-03T08:13:59.544Z,15.53
2023-01-03T08:16:26.588Z,16.17
2023-01-03T08:18:53.493Z,15.27
2023-01-03T08:21:20.380Z,15.70
2023-01-03T08:23:48.800Z,13.80
2023-01-03T08:26:17.237Z,14.87
2023-01-03T08:28:45.126Z,14.73
2023-01-03T08:31:16.649Z,14.33
2023-01-03T08:33:52.074Z,14.30
2023-01-03T08:36:19.691Z,14.07
2023-01-03T08:38:55.933Z,13.97
2023-01-03T08:41:26.183Z,14.03
2023-01-03T08:43:54.579Z,13.70
2023-01-03T08:46:22.192Z,13.60
2023-01-03T08:48:49.225Z,13.83
2023-01-03T08:51:16.076Z,14.07
2023-01-03T08:53:42.841Z,13.90
2023-01-03T08:56:09.599Z,13.07
2023-01-03T08:58:37.449Z,14.63
2023-01-03T09:01:06.233Z,13.60
2023-01-03T09:03:33.377Z,14.77
2023-01-03T09:06:01.879Z,14.13
2023-01-03T09:08:33.348Z,14.33
2023-01-03T09:11:07.693Z,14.03
2023-01-03T09:13:34.983Z,15.83
2023-01-03T09:16:03.105Z,16.57
2023-01-03T09:18:29.954Z,15.30
2023-01-03T09:20:56.771Z,15.63
2023-01-03T09:23:23.768Z,17.67
2023-01-03T09:25:50.622Z,16.13
2023-01-03T09:28:17.514Z,16.60
2023-01-03T09:30:44.664Z,16.20
2023-01-03T09:33:11.470Z,15.30
2023-01-03T09:35:38.501Z,15.53
2023-01-03T09:38:06.078Z,15.47
2023-01-03T09:40:38.760Z,15.80
2023-01-03T09:43:19.818Z,16.63
2023-01-03T09:45:55.948Z,17.37
2023-01-03T09:48:30.630Z,16.23
2023-01-03T09:51:18.422Z,17.50
2023-01-03T09:54:02.774Z,17.30
2023-01-03T09:56:47.994Z,17.57
2023-01-03T09:59:36.099Z,18.33
2023-01-03T10:02:55.380Z,18.23
2023-01-03T10:05:44.492Z,19.23
2023-01-03T10:08:26.292Z,19.20
2023-01-03T10:11:09.771Z,18.07
2023-01-03T10:13:51.139Z,17.83
2023-01-03T10:16:55.622Z,17.70
2023-01-03T10:19:51.583Z,16.93
2023-01-03T10:22:28.012Z,17.33
2023-01-03T10:25:09.659Z,18.00
2023-01-03T10:27:45.993Z,18.00
2023-01-03T10:31:08.696Z,17.83
2023-01-03T10:33:45.664Z,18.27
2023-01-03T10:36:13.579Z,19.33
2023-01-03T10:38:47.893Z,18.80
2023-01-03T10:41:48.503Z,19.30
2023-01-03T10:44:30.243Z,18.60
2023-01-03T10:47:16.079Z,19.67
2023-01-03T10:49:46.818Z,17.30
2023-01-03T10:52:18.671Z,16.90
2023-01-03T10:54:59.818Z,17.77
2023-01-03T10:57:52.692Z,17.77
2023-01-03T11:00:26.406Z,18.20
2023-01-03T11:02:54.161Z,18.20
2023-01-03T11:05:25.965Z,19.13
2023-01-03T11:07:59.647Z,19.13
2023-01-03T11:10:38.962Z,18.03
2023-01-03T11:13:31.519Z,17.53
2023-01-03T11:16:01.677Z,16.10
2023-01-03T11:18:30.142Z,17.30
2023-01-03T11:21:12.631Z,17.37
2023-01-03T11:23:39.439Z,17.23
2023-01-03T11:26:27.434Z,16.47
2023-01-03T11:29:25.936Z,15.77
2023-01-03T11:32:21.773Z,15.53
2023-01-03T11:35:24.283Z,16.03
2023-01-03T11:38:09.959Z,16.63
2023-01-03T11:41:16.263Z,17.20
2023-01-03T11:44:02.083Z,17.67
2023-01-03T11:46:59.926Z,17.90
2023-01-03T11:49:29.649Z,16.77
2023-01-03T11:52:11.764Z,16.43
2023-01-03T11:55:05.224Z,17.53
2023-01-03T11:57:56.203Z,16.53
2023-01-03T12:00:40.981Z,16.80
2023-01-03T12:03:39.679Z,16.23
2023-01-03T12:06:29.153Z,16.63
2023-01-03T12:09:00.785Z,16.47
2023-01-03T12:11:42.760Z,16.70
2023-01-03T12:14:26.435Z,17.03
2023-01-03T12:17:15.349Z,19.27
2023-01-03T12:19:59.584Z,16.60
2023-01-03T12:22:41.697Z,15.90
2023-01-03T12:25:18.497Z,16.77
2023-01-03T12:28:01.057Z,16.70
2023-01-03T12:30:42.586Z,15.47
2023-01-03T12:33:32.671Z,14.33
2023-01-03T12:36:37.756Z,15.60
2023-01-03T12:39:41.955Z,14.67
2023-01-03T12:42:17.823Z,14.33
2023-01-03T12:44:47.086Z,14.33
2023-01-03T12:47:40.414Z,13.87
2023-01-03T12:50:30.812Z,13.83
2023-01-03T12:53:11.307Z,12.90
2023-01-03T12:56:02.902Z,12.53
2023-01-03T12:58:48.088Z,12.80
2023-01-03T13:01:35.901Z,12.93
2023-01-03T13:04:24.991Z,11.27
2023-01-03T13:07:16.023Z,11.10
2023-01-03T13:09:49.713Z,10.70
2023-01-03T13:12:19.972Z,11.17
2023-01-03T13:14:54.598Z,12.80
2023-01-03T13:17:26.687Z,12.27
2023-01-03T13:20:00.536Z,10.43
2023-01-03T13:22:46.020Z,10.20
2023-01-03T13:25:34.866Z,9.63
2023-01-03T13:28:05.707Z,8.17
2023-01-03T13:30:36.003Z,7.63
2023-01-03T13:33:05.763Z,7.77
2023-01-03T13:35:51.342Z,6.97
2023-01-03T13:38:35.787Z,6.70
2023-01-03T13:41:26.668Z,8.00
2023-01-03T13:43:54.683Z,7.63
2023-01-03T13:46:32.844Z,7.90
2023-01-03T13:49:05.801Z,7.73
2023-01-03T13:51:41.641Z,6.93
2023-01-03T13:54:26.127Z,7.70
2023-01-03T13:56:52.900Z,6.97
2023-01-03T13:59:35.488Z,7.00
2023-01-03T14:02:32.531Z,6.80
2023-01-03T14:05:11.331Z,7.57
2023-01-03T14:08:08.251Z,7.50
2023-01-03T14:10:47.035Z,7.63
2023-01-03T14:13:26.067Z,6.43
2023-01-03T14:16:24.855Z,7.93
2023-01-03T14:19:11.319Z,6.67
2023-01-03T14:21:55.360Z,7.00
2023-01-03T14:24:26.473Z,6.77
2023-01-03T14:26:54.256Z,7.40
2023-01-03T14:29:23.770Z,7.27
2023-01-03T14:31:55.637Z,7.60
2023-01-03T14:34:33.509Z,6.80
2023-01-03T14:37:15.647Z,6.37
2023-01-03T14:39:56.580Z,6.90
2023-01-03T14:42:24.473Z,7.17
2023-01-03T14:45:00.573Z,6.43
2023-01-03T14:47:38.195Z,7.03
2023-01-03T14:50:07.467Z,7.60
2023-01-03T14:52:38.144Z,7.80
2023-01-03T14:55:09.202Z,7.87
2023-01-03T14:57:40.262Z,8.47
2023-01-03T15:00:12.253Z,6.80
2023-01-03T15:02:40.905Z,7.80
2023-01-03T15:05:29.713Z,8.07
2023-01-03T15:08:26.338Z,8.57
2023-01-03T15:11:00.091Z,7.03
2023-01-03T15:13:30.625Z,6.60
2023-01-03T15:16:00.750Z,6.47
2023-01-03T15:18:32.029Z,6.37
2023-01-03T15:21:01.677Z,6.10
2023-01-03T15:23:44.289Z,6.70
2023-01-03T15:26:40.100Z,6.80
2023-01-03T15:29:28.535Z,6.33
2023-01-03T15:31:55.681Z,6.00
2023-01-03T15:34:28.815Z,5.70
2023-01-03T15:37:26.862Z,7.03
2023-01-03T15:39:56.496Z,6.53
2023-01-03T15:42:48.181Z,8.17
2023-01-03T15:45:24.188Z,7.87
2023-01-03T15:47:54.491Z,6.53
2023-01-03T15:50:21.739Z,6.10
2023-01-03T15:52:49.135Z,6.07
2023-01-03T15:55:17.340Z,6.00
2023-01-03T15:57:54.046Z,6.00
2023-01-03T16:00:23.206Z,6.13
2023-01-03T16:02:50.734Z,6.40
2023-01-03T16:05:22.637Z,5.73
2023-01-03T16:07:50.873Z,5.80
2023-01-03T16:10:17.753Z,6.37
2023-01-03T16:12:44.600Z,6.60
2023-01-03T16:15:22.248Z,6.10
2023-01-03T16:17:51.375Z,6.13
2023-01-03T16:20:19.826Z,5.60
2023-01-03T16:23:00.279Z,17.93
2023-01-03T16:25:28.159Z,8.37
2023-01-03T16:27:55.115Z,7.00
2023-01-03T16:30:24.100Z,5.50
2023-01-03T16:32:50.874Z,5.37
2023-01-03T16:35:20.611Z,5.10
2023-01-03T16:37:47.566Z,5.57
2023-01-03T16:40:19.828Z,5.40
2023-01-03T16:42:47.494Z,5.10
2023-01-03T16:45:15.058Z,5.00
2023-01-03T16:47:43.591Z,4.93
2023-01-03T16:50:18.310Z,4.67
2023-01-03T16:52:48.456Z,5.43
2023-01-03T16:55:32.858Z,5.37
2023-01-03T16:57:59.816Z,5.40
2023-01-03T17:00:29.861Z,5.53
2023-01-03T17:02:59.913Z,5.47
2023-01-03T17:05:29.039Z,4.90
2023-01-03T17:08:03.984Z,4.33
2023-01-03T17:10:41.951Z,5.20
2023-01-03T17:13:24.386Z,4.63
2023-01-03T17:15:51.282Z,4.93
2023-01-03T17:18:20.350Z,5.50
2023-01-03T17:20:52.152Z,5.57
2023-01-03T17:23:19.060Z,7.10
2023-01-03T17:25:45.991Z,6.27
2023-01-03T17:28:12.844Z,4.97
2023-01-03T17:30:39.997Z,7.07
2023-01-03T17:33:06.916Z,5.60
2023-01-03T17:35:35.905Z,5.80
2023-01-03T17:40:52.687Z,5.17
2023-01-03T17:43:22.429Z,5.00
2023-01-03T17:46:10.564Z,5.20
2023-01-03T17:48:55.902Z,5.33
2023-01-03T17:51:22.906Z,4.70
2023-01-03T17:53:50.910Z,5.50
2023-01-03T17:56:19.235Z,5.50
2023-01-03T17:58:55.688Z,5.43
2023-01-03T18:01:23.362Z,5.10
2023-01-03T18:03:50.393Z,6.60
2023-01-03T18:06:22.952Z,5.63
2023-01-03T18:08:51.308Z,5.30
2023-01-03T18:11:20.111Z,4.73
2023-01-03T18:13:48.366Z,5.70
2023-01-03T18:16:20.337Z,5.73
2023-01-03T18:18:48.010Z,4.33
2023-01-03T18:21:27.650Z,5.43
2023-01-03T18:23:57.816Z,5.40
2023-01-03T18:26:32.869Z,5.57
2023-01-03T18:28:59.816Z,4.40
2023-01-03T18:31:26.673Z,4.77
2023-01-03T18:33:53.397Z,5.13
2023-01-03T18:36:28.768Z,4.70
2023-01-03T18:39:29.207Z,5.57
2023-01-03T18:42:17.305Z,5.10
2023-01-03T18:44:44.373Z,4.67
2023-01-03T18:47:12.940Z,5.90
2023-01-03T18:49:39.789Z,5.07
2023-01-03T18:52:06.715Z,4.80
2023-01-03T18:54:38.337Z,4.40
2023-01-03T18:57:05.082Z,5.03
2023-01-03T18:59:32.256Z,5.23
2023-01-03T19:01:59.361Z,5.10
2023-01-03T19:04:26.643Z,4.87
2023-01-03T19:06:53.507Z,4.30
2023-01-03T19:09:24.128Z,4.67
2023-01-03T19:11:52.938Z,4.60
2023-01-03T19:14:19.830Z,4.87
2023-01-03T19:16:46.833Z,12.13
2023-01-03T19:19:13.589Z,5.20
2023-01-03T19:21:42.653Z,4.63
2023-01-03T19:24:29.731Z,4.10
2023-01-03T19:27:21.908Z,4.57
2023-01-03T19:29:49.707Z,4.30
2023-01-03T19:32:19.185Z,4.00
2023-01-03T19:34:45.989Z,3.37
2023-01-03T19:37:12.850Z,4.10
2023-01-03T19:39:39.625Z,4.87
2023-01-03T19:42:30.238Z,4.03
2023-01-03T19:44:59.494Z,4.77
2023-01-03T19:47:26.519Z,3.70
2023-01-03T19:49:54.722Z,3.90
2023-01-03T19:52:21.512Z,4.93
2023-01-03T19:54:48.292Z,3.83
2023-01-03T19:57:23.984Z,3.63
2023-01-03T19:59:56.681Z,3.47
2023-01-03T20:02:32.759Z,4.13
2023-01-03T20:05:00.824Z,3.77
2023-01-03T20:07:27.800Z,3.73
2023-01-03T20:09:54.644Z,4.10
2023-01-03T20:12:26.560Z,3.57
2023-01-03T20:14:58.771Z,4.23
2023-01-03T20:17:29.495Z,4.10
2023-01-03T20:19:56.232Z,3.53
2023-01-03T20:23:03.644Z,4.27
2023-01-03T20:25:25.052Z,3.30
2023-01-03T20:27:52.899Z,3.13
2023-01-03T20:30:21.952Z,3.43
2023-01-03T20:32:48.891Z,4.37
2023-01-03T20:38:05.102Z,3.37
2023-01-03T20:40:31.879Z,3.60
2023-01-03T20:43:02.012Z,3.50
2023-01-03T20:45:29.740Z,3.53
2023-01-03T20:47:56.464Z,3.17
2023-01-03T20:50:28.393Z,3.23
2023-01-03T20:52:58.017Z,4.00
2023-01-03T20:55:26.748Z,3.47
2023-01-03T20:57:53.806Z,3.27
2023-01-03T21:00:35.457Z,3.23
2023-01-03T21:03:02.364Z,3.53
2023-01-03T21:05:29.265Z,3.63
2023-01-03T21:08:14.595Z,3.63
2023-01-03T21:10:43.610Z,3.20
2023-01-03T21:13:11.196Z,3.33
2023-01-03T21:15:38.638Z,3.00
2023-01-03T21:18:06.182Z,3.03
2023-01-03T21:20:33.282Z,3.03
2023-01-03T21:23:00.177Z,3.13
2023-01-03T21:25:30.404Z,4.40
2023-01-03T21:27:57.320Z,3.50
2023-01-03T21:30:24.768Z,4.40
2023-01-03T21:32:52.156Z,3.83
2023-01-03T21:35:21.340Z,3.07
2023-01-03T21:37:49.322Z,3.10
2023-01-03T21:40:23.588Z,3.83
2023-01-03T21:43:04.295Z,5.10
2023-01-03T21:45:40.219Z,3.43
2023-01-03T21:48:12.497Z,3.20
2023-01-03T21:50:43.118Z,2.90
2023-01-03T21:53:18.848Z,3.13
2023-01-03T21:55:46.697Z,2.73
2023-01-03T21:58:15.733Z,3.23
2023-01-03T22:00:43.051Z,2.90
2023-01-03T22:03:33.457Z,3.63
2023-01-03T22:06:07.775Z,2.83
2023-01-03T22:08:34.574Z,2.70
2023-01-03T22:11:01.378Z,3.50
2023-01-03T22:13:28.624Z,3.07
2023-01-03T22:15:55.486Z,3.10
2023-01-03T22:18:22.396Z,2.77
2023-01-03T22:20:49.162Z,3.63
2023-01-03T22:23:18.963Z,2.73
2023-01-03T22:25:45.885Z,2.77
2023-01-03T22:28:12.626Z,3.13
2023-01-03T22:30:39.427Z,3.30
2023-01-03T22:33:06.518Z,2.73
2023-01-03T22:35:33.278Z,2.83
2023-01-03T22:38:00.000Z,2.70
2023-01-03T22:40:26.783Z,2.90
2023-01-03T22:42:53.567Z,3.00
2023-01-03T22:45:20.369Z,2.50
2023-01-03T22:47:47.264Z,2.70
2023-01-03T22:50:14.005Z,2.87
2023-01-03T22:52:40.780Z,3.17
2023-01-03T22:55:08.282Z,3.37
2023-01-03T22:57:35.113Z,2.93
2023-01-03T23:00:02.171Z,2.60
2023-01-03T23:02:29.800Z,3.23
2023-01-03T23:04:57.484Z,2.83
2023-01-03T23:07:24.334Z,3.03
2023-01-03T23:09:51.067Z,2.70
2023-01-03T23:12:36.320Z,2.87
2023-01-03T23:15:03.420Z,3.17
2023-01-03T23:17:48.569Z,3.00
2023-01-03T23:20:15.407Z,2.93
2023-01-03T23:22:43.614Z,2.93
2023-01-03T23:25:10.424Z,3.47
2023-01-03T23:27:37.244Z,2.83
2023-01-03T23:30:04.581Z,3.37
2023-01-03T23:32:32.801Z,2.60
2023-01-03T23:34:59.521Z,4.67
2023-01-03T23:37:27.326Z,3.33
2023-01-03T23:39:54.138Z,3.50
2023-01-03T23:42:20.882Z,2.93
2023-01-03T23:44:47.617Z,3.40
2023-01-03T23:47:14.348Z,2.83
2023-01-03T23:49:41.262Z,3.37
2023-01-03T23:52:08.385Z,3.40
2023-01-03T23:54:35.315Z,3.13
2023-01-03T23:57:02.024Z,3.43
2023-01-03T23:59:28.766Z,3.20
